createdAt,value
2018-10-01T09:41:34.686Z,22.60
2018-10-01T09:44:02.800Z,22.60
2018-10-01T09:49:03.544Z,22.40
2018-10-01T09:51:31.601Z,21.70
2018-10-01T09:54:00.163Z,21.30
2018-10-01T09:56:28.279Z,21.10
2018-10-01T09:58:56.369Z,21.00
2018-10-01T10:01:24.448Z,21.00
2018-10-01T10:03:52.527Z,21.00
2018-10-01T10:06:20.652Z,20.90
2018-10-01T10:08:48.791Z,20.90
2018-10-01T10:11:16.912Z,21.00
2018-10-01T10:13:45.046Z,21.10
2018-10-01T10:16:13.126Z,21.10
2018-10-01T10:18:41.157Z,21.10
2018-10-01T10:21:09.244Z,21.00
2018-10-01T10:23:37.304Z,20.90
2018-10-01T10:26:05.447Z,20.90
2018-10-01T10:28:33.477Z,21.00
2018-10-01T10:31:01.510Z,21.00
2018-10-01T10:33:29.687Z,21.00
2018-10-01T10:37:07.078Z,21.00
2018-10-01T10:39:35.849Z,20.90
2018-10-01T10:42:04.449Z,20.90
2018-10-01T10:44:33.226Z,21.00
2018-10-01T10:47:02.025Z,21.00
2018-10-01T10:49:30.718Z,20.90
2018-10-01T10:51:59.407Z,20.90
2018-10-01T10:54:28.162Z,20.90
2018-10-01T10:56:56.834Z,20.90
2018-10-01T10:59:25.591Z,20.90
2018-10-01T11:01:54.275Z,20.90
2018-10-01T11:04:22.921Z,20.70
2018-10-01T11:06:51.586Z,20.00
2018-10-01T19:35:20.604Z,20.70
2018-10-01T19:37:49.274Z,20.90
2018-10-01T19:40:17.954Z,20.80
2018-10-01T19:42:46.662Z,20.80
2018-10-01T19:45:15.344Z,20.90
2018-10-01T19:47:42.994Z,20.90
2018-10-01T19:50:10.039Z,21.10
2018-10-01T19:52:37.137Z,21.20
2018-10-01T19:55:04.226Z,21.20
2018-10-01T19:57:31.303Z,21.20
2018-10-01T19:59:58.408Z,21.20
2018-10-01T20:02:25.498Z,21.20
2018-10-01T20:04:52.632Z,21.10
2018-10-01T20:07:19.697Z,21.10
2018-10-01T20:09:46.778Z,21.10
2018-10-01T20:12:14.623Z,21.20
2018-10-01T20:14:42.356Z,21.20
2018-10-01T20:17:09.440Z,21.20
2018-10-01T20:19:36.603Z,21.20
2018-10-01T20:22:03.809Z,21.20
2018-10-01T20:24:30.912Z,21.30
2018-10-01T20:26:58.030Z,21.30
2018-10-01T20:29:25.182Z,21.30
2018-10-01T20:31:52.143Z,21.30
